Time;durP1;ratioP1;P1;durP2;ratioP2;P2;SDS_P1;SDS_P2;PMS_P1;PMS_P2;Temp;Humidity;BMP_temperature;BMP_pressure;BME280_temperature;BME280_humidity;BME280_pressure;Samples;Min_cycle;Max_cycle;Signal;HPM_P1;HPM_P2
2022/12/16 00:00:25;;;;;;;2.20;2.00;;;-5.00;98.20;;;;;;5050559;28;20462;-72
2022/12/16 00:02:52;;;;;;;2.30;2.10;;;-5.00;98.20;;;;;;5048819;28;20465;-73
2022/12/16 00:05:21;;;;;;;2.30;2.10;;;-5.10;98.20;;;;;;5048894;28;20493;-73
2022/12/16 00:07:48;;;;;;;2.30;2.10;;;-5.10;98.20;;;;;;5047239;28;20466;-73
2022/12/16 00:10:15;;;;;;;2.40;2.20;;;-5.20;98.20;;;;;;5051401;28;20968;-72
2022/12/16 00:12:42;;;;;;;2.20;2.10;;;-5.20;98.20;;;;;;5049019;28;20577;-73
2022/12/16 00:15:09;;;;;;;2.20;2.10;;;-5.20;98.20;;;;;;5048717;28;20493;-73
2022/12/16 00:17:36;;;;;;;2.43;2.23;;;-5.20;98.20;;;;;;5049110;28;20464;-74
2022/12/16 00:20:03;;;;;;;2.10;2.00;;;-5.30;98.20;;;;;;5047698;28;20816;-73
2022/12/16 00:22:31;;;;;;;2.20;2.10;;;-5.30;98.20;;;;;;5049811;28;20466;-73
2022/12/16 00:24:58;;;;;;;2.10;2.00;;;-5.30;98.20;;;;;;5048720;28;20557;-72
2022/12/16 00:27:24;;;;;;;2.10;2.00;;;-5.30;98.20;;;;;;5054420;28;20461;-72
2022/12/16 00:29:51;;;;;;;2.30;2.10;;;-5.30;98.20;;;;;;5050612;28;20861;-72
2022/12/16 00:32:18;;;;;;;2.20;2.03;;;-5.30;98.20;;;;;;5047328;28;20462;-72
2022/12/16 00:34:45;;;;;;;4.20;4.00;;;-5.30;98.20;;;;;;5048750;28;20485;-74
2022/12/16 00:37:12;;;;;;;2.37;2.17;;;-5.20;98.20;;;;;;5047917;28;20462;-73
2022/12/16 00:39:40;;;;;;;2.30;2.10;;;-5.20;98.20;;;;;;5047914;28;20469;-73
2022/12/16 00:42:07;;;;;;;2.30;2.10;;;-5.10;98.20;;;;;;5048772;28;20458;-73
2022/12/16 00:44:33;;;;;;;2.30;2.10;;;-5.10;98.20;;;;;;5048764;28;20497;-73
2022/12/16 00:47:00;;;;;;;2.30;2.10;;;-5.10;98.20;;;;;;5048077;28;20458;-73
2022/12/16 00:49:27;;;;;;;2.30;2.10;;;-5.00;98.20;;;;;;5050428;28;20932;-73
2022/12/16 00:51:54;;;;;;;2.30;2.10;;;-5.00;98.20;;;;;;5048311;28;20470;-73
2022/12/16 00:54:20;;;;;;;2.40;2.20;;;-5.00;98.20;;;;;;5048767;28;20486;-72
2022/12/16 00:56:49;;;;;;;2.30;2.10;;;-4.90;98.20;;;;;;5048190;28;20462;-74
2022/12/16 00:59:15;;;;;;;2.30;2.10;;;-4.90;98.20;;;;;;5048246;28;20521;-73
2022/12/16 01:01:42;;;;;;;2.30;2.10;;;-4.90;98.20;;;;;;5049255;28;20765;-72
2022/12/16 01:04:09;;;;;;;2.13;2.03;;;-4.90;98.20;;;;;;5041195;28;20476;-72
2022/12/16 01:06:36;;;;;;;2.20;2.00;;;-4.90;98.20;;;;;;5045578;28;20545;-74
2022/12/16 01:09:03;;;;;;;7.63;3.30;;;-4.90;98.20;;;;;;5042356;28;20478;-73
2022/12/16 01:11:29;;;;;;;2.00;1.90;;;-4.90;98.20;;;;;;5048649;28;20963;-73
2022/12/16 01:13:58;;;;;;;2.20;2.00;;;-4.90;98.20;;;;;;5053169;28;20490;-73
2022/12/16 01:16:25;;;;;;;2.17;2.00;;;-4.90;98.20;;;;;;5049014;28;20458;-73
2022/12/16 01:18:52;;;;;;;2.10;2.00;;;-4.90;98.20;;;;;;5049211;28;20469;-73
2022/12/16 01:21:18;;;;;;;2.17;2.00;;;-4.90;98.20;;;;;;5047710;28;21101;-72
2022/12/16 01:23:47;;;;;;;2.30;2.10;;;-4.90;98.20;;;;;;5048694;28;20451;-73
2022/12/16 01:26:17;;;;;;;2.30;2.10;;;-4.90;98.20;;;;;;5043191;28;20484;-73
2022/12/16 01:28:43;;;;;;;2.10;2.00;;;-4.80;98.20;;;;;;5041671;28;20458;-73
2022/12/16 01:31:12;;;;;;;2.27;2.10;;;-4.80;98.20;;;;;;5039043;28;20467;-73
2022/12/16 01:33:38;;;;;;;2.10;2.00;;;-4.70;98.20;;;;;;5033252;28;20487;-73
2022/12/16 01:36:07;;;;;;;2.20;2.07;;;-4.70;98.20;;;;;;5044068;28;20487;-74
2022/12/16 01:38:35;;;;;;;2.30;2.10;;;-4.60;98.20;;;;;;5041707;28;20458;-74
2022/12/16 01:41:02;;;;;;;2.20;2.00;;;-4.60;98.20;;;;;;5048786;28;20458;-73
2022/12/16 01:43:31;;;;;;;2.20;2.00;;;-4.60;98.20;;;;;;5036834;28;20456;-73
2022/12/16 01:46:02;;;;;;;2.10;2.00;;;-4.60;98.20;;;;;;5043613;28;20478;-73
2022/12/16 01:48:39;;;;;;;3.40;3.20;;;-4.70;98.20;;;;;;5041798;28;20466;-72
2022/12/16 01:51:09;;;;;;;2.20;2.10;;;-4.70;98.20;;;;;;5053838;28;20466;-73
2022/12/16 01:53:39;;;;;;;2.00;1.90;;;-4.70;98.20;;;;;;5042310;28;20487;-72
2022/12/16 01:56:07;;;;;;;2.17;2.00;;;-4.70;98.20;;;;;;5041849;28;20491;-73
2022/12/16 01:58:36;;;;;;;2.23;2.10;;;-4.70;98.20;;;;;;5046780;28;20460;-72
2022/12/16 02:01:04;;;;;;;2.10;2.00;;;-4.60;98.20;;;;;;5041433;28;20466;-73
2022/12/16 02:03:36;;;;;;;2.20;2.00;;;-4.60;98.20;;;;;;5045291;28;20474;-73
2022/12/16 02:06:05;;;;;;;2.20;2.00;;;-4.50;98.20;;;;;;5037555;28;20484;-73
2022/12/16 02:08:33;;;;;;;2.10;2.00;;;-4.50;98.20;;;;;;5035396;28;20466;-73
2022/12/16 02:11:24;;;;;;;2.17;2.00;;;-4.50;98.20;;;;;;5040031;28;20455;-73
2022/12/16 02:14:07;;;;;;;2.00;1.90;;;-4.50;98.20;;;;;;5047887;28;20846;-73
2022/12/16 02:16:46;;;;;;;2.13;2.00;;;-4.50;98.20;;;;;;5046998;28;20450;-73
2022/12/16 02:19:34;;;;;;;2.33;2.13;;;-4.60;98.20;;;;;;5042111;28;20535;-72
2022/12/16 02:22:12;;;;;;;2.10;2.00;;;-4.70;98.20;;;;;;5040707;28;20467;-73
2022/12/16 02:25:12;;;;;;;2.17;2.07;;;-4.80;98.20;;;;;;5048107;28;20503;-73
2022/12/16 02:27:51;;;;;;;2.20;2.00;;;-4.80;98.20;;;;;;5044105;28;20462;-73
2022/12/16 02:30:39;;;;;;;2.73;2.57;;;-4.80;98.20;;;;;;5047194;28;20469;-72
2022/12/16 02:33:21;;;;;;;5.03;4.63;;;-4.80;98.20;;;;;;5046771;28;20840;-72
2022/12/16 02:35:57;;;;;;;2.30;2.10;;;-4.80;98.20;;;;;;5039245;28;20483;-73
2022/12/16 02:38:30;;;;;;;2.10;2.00;;;-4.80;98.20;;;;;;5040791;28;20530;-72
2022/12/16 02:41:02;;;;;;;2.10;2.00;;;-4.90;98.20;;;;;;5046876;28;20533;-73
2022/12/16 02:43:51;;;;;;;2.20;2.10;;;-4.90;98.20;;;;;;5041836;28;20838;-73
2022/12/16 02:46:24;;;;;;;2.10;2.00;;;-5.00;98.20;;;;;;5035728;28;20462;-73
2022/12/16 02:48:50;;;;;;;2.20;2.10;;;-5.00;98.20;;;;;;5041070;28;20455;-73
2022/12/16 02:51:18;;;;;;;4.93;4.63;;;-5.10;98.20;;;;;;5036463;28;20459;-73
2022/12/16 02:53:46;;;;;;;2.77;2.57;;;-5.10;98.20;;;;;;5041041;28;20870;-73
2022/12/16 02:56:24;;;;;;;2.10;2.00;;;-5.20;98.20;;;;;;5043351;28;20474;-73
2022/12/16 02:58:57;;;;;;;2.17;2.07;;;-5.30;98.20;;;;;;5041584;28;20846;-72
2022/12/16 03:01:36;;;;;;;2.33;2.13;;;-5.30;98.20;;;;;;5049758;28;21102;-72
2022/12/16 03:04:07;;;;;;;2.93;2.73;;;-5.30;98.20;;;;;;5042770;28;20450;-72
2022/12/16 03:06:38;;;;;;;2.17;2.00;;;-5.30;98.20;;;;;;5051221;28;20458;-72
2022/12/16 03:09:10;;;;;;;2.20;2.10;;;-5.40;98.20;;;;;;5038912;28;20482;-72
2022/12/16 03:11:41;;;;;;;2.20;2.10;;;-5.40;98.20;;;;;;5050805;28;20461;-72
2022/12/16 03:14:12;;;;;;;2.30;2.10;;;-5.50;98.20;;;;;;5049999;28;20482;-72
2022/12/16 03:16:41;;;;;;;2.30;2.10;;;-5.50;98.20;;;;;;5049598;28;20465;-72
2022/12/16 03:19:10;;;;;;;2.30;2.10;;;-5.50;98.20;;;;;;5044721;28;20462;-72
2022/12/16 03:21:43;;;;;;;2.40;2.20;;;-5.50;98.20;;;;;;5050344;28;20511;-72
2022/12/16 03:24:12;;;;;;;2.40;2.20;;;-5.50;98.20;;;;;;5051109;28;20461;-72
2022/12/16 03:26:44;;;;;;;2.30;2.10;;;-5.40;98.20;;;;;;5049400;28;20454;-72
2022/12/16 03:29:16;;;;;;;2.47;2.27;;;-5.40;98.20;;;;;;5044244;28;20470;-72
2022/12/16 03:31:54;;;;;;;2.10;2.00;;;-5.30;98.20;;;;;;5043901;28;20473;-71
2022/12/16 03:34:27;;;;;;;5.90;5.60;;;-5.30;98.20;;;;;;5045671;28;20633;-72
2022/12/16 03:36:59;;;;;;;2.40;2.20;;;-5.30;98.20;;;;;;5048284;28;20470;-73
2022/12/16 03:39:26;;;;;;;2.30;2.10;;;-5.30;98.20;;;;;;5040345;28;20525;-72
2022/12/16 03:41:54;;;;;;;2.33;2.13;;;-5.30;98.20;;;;;;5044346;28;20455;-71
2022/12/16 03:44:24;;;;;;;2.17;2.03;;;-5.40;98.20;;;;;;5055169;28;20476;-72
2022/12/16 03:46:52;;;;;;;2.30;2.10;;;-5.40;98.20;;;;;;5044389;28;20593;-73
2022/12/16 03:49:19;;;;;;;2.30;2.10;;;-5.50;98.20;;;;;;5036557;28;20848;-72
2022/12/16 03:51:45;;;;;;;2.30;2.10;;;-5.50;98.20;;;;;;5047965;28;20809;-72
2022/12/16 03:54:12;;;;;;;2.30;2.10;;;-5.50;98.20;;;;;;5050401;28;20478;-72
2022/12/16 03:56:39;;;;;;;2.20;2.10;;;-5.50;98.20;;;;;;5048540;28;20459;-72
2022/12/16 03:59:06;;;;;;;2.50;2.30;;;-5.50;98.20;;;;;;5047025;28;20508;-71
2022/12/16 04:01:33;;;;;;;2.20;2.10;;;-5.50;98.20;;;;;;5046588;28;20855;-72
2022/12/16 04:04:01;;;;;;;2.40;2.20;;;-5.50;98.20;;;;;;5048429;28;20454;-72
2022/12/16 04:06:27;;;;;;;2.30;2.10;;;-5.40;98.20;;;;;;5049322;28;20473;-72
2022/12/16 04:08:54;;;;;;;2.30;2.10;;;-5.40;98.20;;;;;;5048071;28;20462;-73
2022/12/16 04:25:25;;;;;;;2.20;2.10;;;-5.30;98.20;;;;;;5046212;28;20485;-73
2022/12/16 04:27:52;;;;;;;2.10;2.00;;;-5.30;98.20;;;;;;5051020;28;20462;-72
2022/12/16 04:30:20;;;;;;;2.10;2.00;;;-5.30;98.20;;;;;;5051485;28;20470;-72
